createdAt,value
2022-12-25T00:00:21.185Z,9.68
2022-12-25T00:03:25.184Z,9.18
2022-12-25T00:09:34.741Z,8.85
2022-12-25T00:12:38.542Z,8.70
2022-12-25T00:15:42.716Z,8.55
2022-12-25T00:18:46.549Z,8.20
2022-12-25T00:24:55.704Z,8.50
2022-12-25T00:27:59.404Z,8.77
2022-12-25T00:31:06.472Z,7.85
2022-12-25T00:34:10.236Z,8.02
2022-12-25T00:37:13.963Z,8.98
2022-12-25T00:40:19.756Z,8.88
2022-12-25T00:43:23.710Z,9.13
2022-12-25T00:49:31.146Z,10.27
2022-12-25T00:52:34.850Z,14.35
2022-12-25T00:55:40.555Z,10.48
2022-12-25T00:58:44.276Z,10.48
2022-12-25T01:01:48.334Z,8.15
2022-12-25T01:04:53.411Z,8.93
2022-12-25T01:07:57.152Z,9.23
2022-12-25T01:11:03.399Z,8.20
2022-12-25T01:14:07.515Z,8.68
2022-12-25T01:17:11.218Z,9.40
2022-12-25T01:20:17.398Z,9.70
2022-12-25T01:23:21.132Z,8.77
2022-12-25T01:26:29.045Z,8.95
2022-12-25T01:29:32.796Z,9.23
2022-12-25T01:35:41.035Z,11.00
2022-12-25T01:38:45.599Z,9.02
2022-12-25T01:41:51.313Z,10.15
2022-12-25T01:45:28.374Z,9.00
2022-12-25T01:48:35.105Z,9.05
2022-12-25T01:51:42.431Z,9.52
2022-12-25T01:54:50.322Z,9.98
2022-12-25T01:57:56.259Z,9.70
2022-12-25T02:01:00.358Z,9.48
2022-12-25T02:04:14.651Z,10.07
2022-12-25T02:07:21.989Z,8.77
2022-12-25T02:10:25.856Z,10.77
2022-12-25T02:13:31.846Z,8.82
2022-12-25T02:16:57.929Z,8.00
2022-12-25T02:20:17.752Z,8.23
2022-12-25T02:24:02.415Z,8.65
2022-12-25T02:27:17.632Z,8.32
2022-12-25T02:30:23.579Z,8.70
2022-12-25T02:33:46.826Z,7.80
2022-12-25T02:36:54.374Z,8.93
2022-12-25T02:40:03.672Z,7.72
2022-12-25T02:43:25.951Z,8.55
2022-12-25T02:46:47.592Z,7.85
2022-12-25T02:50:06.441Z,9.15
2022-12-25T02:53:24.447Z,8.40
2022-12-25T02:56:44.260Z,7.93
2022-12-25T03:00:04.651Z,9.18
2022-12-25T03:03:28.152Z,7.32
2022-12-25T03:06:46.792Z,7.82
2022-12-25T03:10:13.269Z,7.25
2022-12-25T03:13:20.022Z,8.15
2022-12-25T03:16:52.300Z,7.13
2022-12-25T03:20:11.174Z,7.25
2022-12-25T03:23:29.956Z,7.35
2022-12-25T03:26:48.029Z,7.75
2022-12-25T03:30:04.923Z,7.55
2022-12-25T03:33:43.381Z,7.55
2022-12-25T03:36:54.007Z,7.53
2022-12-25T03:40:17.685Z,8.60
2022-12-25T03:43:43.950Z,9.02
2022-12-25T03:47:09.224Z,6.82
2022-12-25T03:50:31.860Z,7.20
2022-12-25T03:53:55.067Z,7.03
2022-12-25T03:57:13.057Z,7.75
2022-12-25T04:00:30.775Z,6.50
2022-12-25T04:03:47.643Z,7.03
2022-12-25T04:07:04.561Z,8.05
2022-12-25T04:10:24.936Z,7.40
2022-12-25T04:13:41.808Z,8.75
2022-12-25T04:17:10.299Z,7.75
2022-12-25T04:20:27.341Z,7.03
2022-12-25T04:23:44.159Z,7.10
2022-12-25T04:27:02.955Z,7.20
2022-12-25T04:30:21.187Z,7.05
2022-12-25T04:33:38.131Z,7.10
2022-12-25T04:36:41.923Z,6.93
2022-12-25T04:39:45.680Z,7.28
2022-12-25T04:42:51.594Z,7.78
2022-12-25T04:45:55.759Z,6.57
2022-12-25T04:48:59.527Z,7.38
2022-12-25T04:52:03.287Z,6.13
2022-12-25T04:55:08.861Z,7.53
2022-12-25T04:58:14.516Z,7.93
2022-12-25T05:01:18.578Z,6.90
2022-12-25T05:04:22.504Z,7.45
2022-12-25T05:10:29.979Z,7.07
2022-12-25T05:13:35.953Z,7.10
2022-12-25T05:16:39.775Z,6.35
2022-12-25T05:19:44.338Z,6.68
2022-12-25T05:22:48.037Z,7.22
2022-12-25T05:25:51.830Z,6.75
2022-12-25T05:28:57.540Z,7.43
2022-12-25T05:32:01.468Z,6.22
2022-12-25T05:35:05.968Z,6.50
2022-12-25T05:38:10.215Z,6.28
2022-12-25T05:41:13.934Z,6.40
2022-12-25T05:44:19.605Z,7.70
2022-12-25T05:47:23.415Z,7.20
2022-12-25T05:50:27.214Z,6.60
2022-12-25T05:53:41.436Z,6.80
2022-12-25T05:56:45.272Z,6.70
2022-12-25T05:59:50.956Z,6.47
2022-12-25T06:02:54.842Z,6.85
2022-12-25T06:09:02.105Z,5.53
2022-12-25T06:12:06.002Z,6.25
2022-12-25T06:18:15.749Z,6.40
2022-12-25T06:21:19.811Z,6.35
2022-12-25T06:27:27.952Z,7.03
2022-12-25T06:30:33.574Z,6.40
2022-12-25T06:33:38.018Z,6.35
2022-12-25T06:36:41.736Z,5.38
2022-12-25T06:39:45.462Z,6.80
2022-12-25T06:42:49.137Z,7.18
2022-12-25T06:45:54.911Z,6.18
2022-12-25T06:48:59.900Z,6.90
2022-12-25T06:52:03.630Z,6.72
2022-12-25T06:55:08.300Z,6.45
2022-12-25T06:58:12.177Z,6.72
2022-12-25T07:01:21.811Z,6.40
2022-12-25T07:04:31.385Z,6.13
2022-12-25T07:07:35.137Z,6.80
2022-12-25T07:10:38.904Z,6.57
2022-12-25T07:13:42.616Z,7.35
2022-12-25T07:16:48.376Z,6.90
2022-12-25T07:19:52.220Z,6.60
2022-12-25T07:22:56.029Z,6.50
2022-12-25T07:26:02.246Z,7.00
2022-12-25T07:29:06.005Z,7.05
2022-12-25T07:32:11.713Z,7.00
2022-12-25T07:35:15.628Z,7.40
2022-12-25T07:38:19.326Z,6.97
2022-12-25T07:41:23.027Z,7.35
2022-12-25T07:44:26.803Z,7.93
2022-12-25T07:47:32.506Z,6.38
2022-12-25T07:50:36.382Z,6.50
2022-12-25T07:53:42.194Z,7.15
2022-12-25T07:56:45.918Z,6.43
2022-12-25T07:59:49.692Z,7.10
2022-12-25T08:02:55.461Z,6.45
2022-12-25T08:06:01.590Z,7.07
2022-12-25T08:09:07.544Z,6.60
2022-12-25T08:12:11.310Z,6.80
2022-12-25T08:15:15.307Z,5.90
2022-12-25T08:21:31.516Z,6.30
2022-12-25T08:24:35.273Z,6.38
2022-12-25T08:27:39.009Z,6.65
2022-12-25T08:30:42.960Z,5.93
2022-12-25T08:36:52.475Z,5.82
2022-12-25T08:39:56.202Z,5.70
2022-12-25T08:43:00.102Z,5.22
2022-12-25T08:49:09.595Z,5.68
2022-12-25T08:52:13.388Z,5.22
2022-12-25T08:55:17.514Z,5.88
2022-12-25T09:01:24.902Z,5.82
2022-12-25T09:07:34.207Z,5.20
2022-12-25T09:10:38.348Z,5.40
2022-12-25T09:13:42.531Z,5.18
2022-12-25T09:16:46.273Z,5.53
2022-12-25T09:19:51.998Z,5.43
2022-12-25T09:22:55.716Z,5.85
2022-12-25T09:26:00.392Z,6.65
2022-12-25T09:29:04.139Z,6.07
2022-12-25T09:32:08.536Z,5.45
2022-12-25T09:35:16.912Z,5.50
2022-12-25T09:38:20.832Z,6.05
2022-12-25T09:44:36.508Z,5.10
2022-12-25T09:47:43.827Z,4.70
2022-12-25T09:50:53.303Z,5.82
2022-12-25T09:54:02.299Z,5.75
2022-12-25T09:57:06.839Z,5.90
2022-12-25T10:00:16.806Z,5.47
2022-12-25T10:03:36.588Z,5.57
2022-12-25T10:06:52.083Z,5.32
2022-12-25T10:10:06.616Z,5.82
2022-12-25T10:13:24.245Z,5.90
2022-12-25T10:16:34.909Z,4.90
2022-12-25T10:19:46.605Z,5.45
2022-12-25T10:22:55.767Z,5.38
2022-12-25T10:26:00.128Z,4.88
2022-12-25T10:29:08.070Z,5.63
2022-12-25T10:32:12.306Z,4.95
2022-12-25T10:35:18.376Z,4.90
2022-12-25T10:38:24.879Z,4.85
2022-12-25T10:41:42.847Z,4.55
2022-12-25T10:44:57.079Z,5.25
2022-12-25T10:48:07.785Z,5.00
2022-12-25T10:51:11.956Z,5.35
2022-12-25T10:54:24.821Z,5.15
2022-12-25T10:57:29.268Z,4.93
2022-12-25T11:00:34.230Z,5.32
2022-12-25T11:03:41.153Z,5.85
2022-12-25T11:06:44.909Z,5.28
2022-12-25T11:09:57.804Z,6.15
2022-12-25T11:13:09.015Z,4.75
2022-12-25T11:16:26.498Z,5.13
2022-12-25T11:19:32.020Z,4.88
2022-12-25T11:22:38.843Z,5.60
2022-12-25T11:25:44.600Z,5.50
2022-12-25T11:28:52.475Z,5.05
2022-12-25T11:31:58.221Z,5.53
2022-12-25T11:35:04.003Z,8.15
2022-12-25T11:38:10.917Z,6.15
2022-12-25T11:41:20.036Z,6.72
2022-12-25T11:44:43.661Z,5.22
2022-12-25T11:47:51.347Z,5.55
2022-12-25T11:50:57.117Z,6.13
2022-12-25T11:54:04.325Z,5.60
2022-12-25T11:57:14.222Z,5.13
2022-12-25T12:00:19.073Z,5.47
2022-12-25T12:03:27.473Z,4.07
2022-12-25T12:06:44.376Z,4.85
2022-12-25T12:09:56.055Z,4.10
2022-12-25T12:13:17.589Z,5.13
2022-12-25T12:16:21.484Z,4.72
2022-12-25T12:19:29.260Z,4.80
2022-12-25T12:22:33.106Z,6.43
2022-12-25T12:25:41.232Z,5.47
2022-12-25T12:28:48.621Z,5.05
2022-12-25T12:31:53.945Z,4.97
2022-12-25T12:34:58.367Z,4.88
2022-12-25T12:38:05.882Z,4.57
2022-12-25T12:41:11.587Z,5.05
2022-12-25T12:44:18.676Z,4.25
2022-12-25T12:47:33.484Z,4.90
2022-12-25T12:50:40.237Z,5.10
2022-12-25T12:53:44.838Z,4.82
2022-12-25T12:56:59.285Z,4.78
2022-12-25T13:00:11.376Z,4.85
2022-12-25T13:03:33.906Z,5.18
2022-12-25T13:06:44.925Z,4.45
2022-12-25T13:10:03.783Z,5.50
2022-12-25T13:13:14.748Z,5.72
2022-12-25T13:16:26.290Z,5.07
2022-12-25T13:19:30.802Z,5.43
2022-12-25T13:22:36.621Z,4.38
2022-12-25T13:25:40.918Z,4.60
2022-12-25T13:28:47.346Z,4.65
2022-12-25T13:31:53.183Z,5.07
2022-12-25T13:34:57.624Z,4.72
2022-12-25T13:38:02.094Z,4.57
2022-12-25T13:41:19.300Z,5.00
2022-12-25T13:44:26.238Z,5.50
2022-12-25T13:47:35.163Z,5.68
2022-12-25T13:50:39.364Z,5.03
2022-12-25T13:53:44.165Z,5.40
2022-12-25T13:56:51.242Z,5.40
2022-12-25T13:59:55.484Z,7.03
2022-12-25T14:03:01.672Z,5.70
2022-12-25T14:06:07.884Z,6.18
2022-12-25T14:09:13.269Z,6.22
2022-12-25T14:12:19.572Z,6.97
2022-12-25T14:15:24.768Z,6.57
2022-12-25T14:18:32.188Z,6.55
2022-12-25T14:21:40.309Z,6.28
2022-12-25T14:24:44.095Z,6.70
2022-12-25T14:27:50.832Z,6.47
2022-12-25T14:30:55.375Z,5.85
2022-12-25T14:34:02.232Z,7.40
2022-12-25T14:37:07.130Z,8.48
2022-12-25T14:40:23.359Z,8.23
2022-12-25T14:43:29.120Z,7.03
2022-12-25T14:46:36.150Z,7.80
2022-12-25T14:49:41.840Z,7.60
2022-12-25T14:52:47.016Z,8.88
2022-12-25T14:55:54.388Z,8.60
2022-12-25T14:58:59.877Z,8.38
2022-12-25T15:02:04.085Z,9.43
2022-12-25T15:05:35.745Z,8.45
2022-12-25T15:08:41.964Z,7.28
2022-12-25T15:11:49.283Z,7.93
2022-12-25T15:14:53.031Z,7.53
2022-12-25T15:17:57.817Z,8.55
2022-12-25T15:21:03.972Z,8.30
2022-12-25T15:24:12.888Z,8.43
2022-12-25T15:27:20.830Z,8.35
2022-12-25T15:30:24.605Z,8.15
2022-12-25T15:33:28.325Z,8.13
2022-12-25T15:36:34.224Z,8.27
2022-12-25T15:39:37.953Z,8.65
2022-12-25T15:42:44.792Z,9.25
2022-12-25T15:45:48.884Z,9.07
2022-12-25T15:48:52.667Z,8.77
2022-12-25T15:51:58.319Z,9.40
2022-12-25T15:55:02.074Z,9.00
2022-12-25T15:58:05.867Z,9.40
2022-12-25T16:01:14.818Z,9.02
2022-12-25T16:04:18.667Z,9.95
2022-12-25T16:07:27.063Z,9.13
2022-12-25T16:10:36.579Z,8.60
2022-12-25T16:13:42.865Z,9.25
2022-12-25T16:16:46.591Z,9.18
2022-12-25T16:19:50.379Z,8.70
2022-12-25T16:22:56.169Z,9.20
2022-12-25T16:26:00.485Z,9.35
2022-12-25T16:29:07.488Z,12.98
2022-12-25T16:32:13.029Z,13.40
2022-12-25T16:35:17.116Z,12.48
2022-12-25T16:38:23.138Z,11.77
2022-12-25T16:41:26.905Z,10.65
2022-12-25T16:44:30.625Z,10.75
2022-12-25T16:47:34.410Z,11.20
2022-12-25T16:50:40.082Z,10.93
2022-12-25T16:53:46.163Z,9.70
2022-12-25T16:56:51.182Z,10.75
2022-12-25T16:59:55.112Z,11.77
2022-12-25T17:06:03.489Z,10.50
2022-12-25T17:09:10.004Z,10.88
2022-12-25T17:12:13.817Z,14.23
2022-12-25T17:15:17.672Z,14.73
2022-12-25T17:18:21.461Z,13.77
2022-12-25T17:21:29.585Z,13.23
2022-12-25T17:24:36.742Z,13.10
2022-12-25T17:27:40.484Z,16.10
2022-12-25T17:30:44.265Z,14.43
2022-12-25T17:33:47.955Z,14.77
2022-12-25T17:36:51.659Z,14.60
2022-12-25T17:39:57.371Z,14.65
2022-12-25T17:43:01.173Z,13.98
2022-12-25T17:46:09.025Z,17.60
2022-12-25T17:49:18.995Z,15.05
2022-12-25T17:52:22.712Z,15.55
2022-12-25T17:55:33.515Z,16.42
2022-12-25T17:58:37.466Z,16.80
2022-12-25T18:04:46.631Z,16.10
2022-12-25T18:07:50.359Z,14.98
2022-12-25T18:10:56.209Z,17.63
2022-12-25T18:14:03.677Z,16.77
2022-12-25T18:17:07.387Z,18.05
2022-12-25T18:20:11.524Z,17.70
2022-12-25T18:23:15.228Z,21.15
2022-12-25T18:26:21.818Z,20.42
2022-12-25T18:29:25.580Z,22.05
2022-12-25T18:32:29.303Z,20.75
2022-12-25T18:35:33.242Z,20.45
2022-12-25T18:41:55.779Z,21.07
2022-12-25T18:44:59.603Z,20.35
2022-12-25T18:48:05.455Z,20.80
2022-12-25T18:51:12.562Z,21.17
2022-12-25T18:54:18.634Z,31.00
2022-12-25T18:57:24.267Z,30.33
2022-12-25T19:00:28.188Z,27.67
2022-12-25T19:06:35.478Z,27.33
2022-12-25T19:09:39.606Z,26.52
2022-12-25T19:12:45.256Z,25.10
2022-12-25T19:15:49.062Z,24.48
2022-12-25T19:18:52.808Z,24.20
2022-12-25T19:21:58.591Z,24.85
2022-12-25T19:25:05.100Z,27.63
2022-12-25T19:28:10.800Z,24.63
2022-12-25T19:31:15.063Z,23.65
2022-12-25T19:34:18.809Z,23.83
2022-12-25T19:37:22.533Z,23.65
2022-12-25T19:40:26.354Z,20.83
2022-12-25T19:43:33.965Z,20.90
2022-12-25T19:46:39.867Z,19.25
2022-12-25T19:49:44.351Z,20.27
2022-12-25T19:52:48.998Z,18.63
2022-12-25T19:55:53.731Z,17.77
2022-12-25T19:58:59.655Z,20.50
2022-12-25T20:02:03.507Z,17.85
2022-12-25T20:05:08.137Z,20.85
2022-12-25T20:08:11.902Z,19.15
2022-12-25T20:11:17.703Z,22.77
2022-12-25T20:14:23.490Z,21.67
2022-12-25T20:17:27.168Z,22.33
2022-12-25T20:20:31.002Z,24.13
2022-12-25T20:23:35.545Z,25.58
2022-12-25T20:26:40.083Z,25.63
2022-12-25T20:29:45.883Z,24.80
2022-12-25T20:32:50.834Z,23.45
2022-12-25T20:35:56.398Z,23.52
2022-12-25T20:39:00.285Z,22.88
2022-12-25T20:42:05.592Z,23.13
2022-12-25T20:45:12.227Z,21.48
2022-12-25T20:48:15.952Z,21.98
2022-12-25T20:51:22.203Z,21.20
2022-12-25T20:54:25.951Z,26.95
2022-12-25T20:57:30.055Z,24.92
2022-12-25T21:00:35.788Z,24.27
2022-12-25T21:03:40.206Z,21.70
2022-12-25T21:06:44.205Z,20.85
2022-12-25T21:09:47.961Z,20.23
2022-12-25T21:12:51.749Z,20.83
2022-12-25T21:15:57.704Z,19.83
2022-12-25T21:19:04.244Z,19.00
2022-12-25T21:22:08.167Z,20.88
2022-12-25T21:25:12.055Z,21.73
2022-12-25T21:31:21.967Z,19.13
2022-12-25T21:34:25.036Z,18.55
2022-12-25T21:37:31.336Z,17.73
2022-12-25T21:40:36.447Z,17.55
2022-12-25T21:43:42.260Z,15.73
2022-12-25T21:46:48.025Z,16.52
2022-12-25T21:50:04.944Z,14.80
2022-12-25T21:53:08.926Z,15.85
2022-12-25T21:56:12.666Z,15.80
2022-12-25T21:59:18.816Z,16.65
2022-12-25T22:02:25.061Z,15.52
2022-12-25T22:05:42.125Z,15.70
2022-12-25T22:08:45.853Z,15.75
2022-12-25T22:12:02.748Z,16.25
2022-12-25T22:15:09.306Z,16.50
2022-12-25T22:18:29.004Z,15.70
2022-12-25T22:21:32.689Z,14.93
2022-12-25T22:24:36.655Z,15.15
2022-12-25T22:30:44.625Z,14.40
2022-12-25T22:36:53.884Z,14.95
2022-12-25T22:39:57.581Z,14.52
2022-12-25T22:43:01.255Z,14.80
2022-12-25T22:46:06.869Z,14.88
2022-12-25T22:49:12.478Z,14.98
2022-12-25T22:52:16.233Z,13.98
2022-12-25T22:55:20.361Z,14.18
2022-12-25T22:58:24.184Z,14.55
2022-12-25T23:01:28.049Z,14.00
2022-12-25T23:07:37.302Z,12.48
2022-12-25T23:10:41.019Z,12.88
2022-12-25T23:13:57.987Z,11.95
2022-12-25T23:17:01.843Z,11.32
2022-12-25T23:23:38.250Z,11.48
2022-12-25T23:26:41.961Z,11.43
2022-12-25T23:29:45.756Z,11.05
2022-12-25T23:32:49.497Z,12.35
2022-12-25T23:35:55.243Z,11.18
2022-12-25T23:39:08.598Z,12.10
2022-12-25T23:42:13.613Z,9.95
2022-12-25T23:45:17.480Z,10.38
2022-12-25T23:48:21.229Z,10.23
2022-12-25T23:51:27.047Z,9.57
2022-12-25T23:54:32.527Z,9.40
2022-12-25T23:57:36.276Z,9.10
